sensor_id;sensor_type;location;lat;lon;timestamp;P1;durP1;ratioP1;P2;durP2;ratioP2
75854;SDS011;64502;59.976;30.316;2023-02-15T00:01:34;2.67;;;0.77;;
75854;SDS011;64502;59.976;30.316;2023-02-15T00:04:00;3.13;;;0.40;;
75854;SDS011;64502;59.976;30.316;2023-02-15T00:06:26;2.42;;;0.22;;
75854;SDS011;64502;59.976;30.316;2023-02-15T00:08:52;2.33;;;0.43;;
75854;SDS011;64502;59.976;30.316;2023-02-15T00:11:19;4.78;;;0.77;;
75854;SDS011;64502;59.976;30.316;2023-02-15T00:14:15;5.65;;;0.60;;
75854;SDS011;64502;59.976;30.316;2023-02-15T00:16:42;1.55;;;0.35;;
75854;SDS011;64502;59.976;30.316;2023-02-15T00:19:09;3.20;;;0.30;;
75854;SDS011;64502;59.976;30.316;2023-02-15T00:21:36;2.60;;;0.30;;
75854;SDS011;64502;59.976;30.316;2023-02-15T00:24:03;2.80;;;0.40;;
75854;SDS011;64502;59.976;30.316;2023-02-15T00:26:29;3.58;;;0.63;;
75854;SDS011;64502;59.976;30.316;2023-02-15T00:28:55;4.30;;;0.70;;
75854;SDS011;64502;59.976;30.316;2023-02-15T00:31:23;3.60;;;1.08;;
75854;SDS011;64502;59.976;30.316;2023-02-15T00:33:48;3.78;;;0.60;;
75854;SDS011;64502;59.976;30.316;2023-02-15T00:36:14;5.43;;;0.88;;
75854;SDS011;64502;59.976;30.316;2023-02-15T00:38:39;3.03;;;0.73;;
75854;SDS011;64502;59.976;30.316;2023-02-15T00:41:05;3.80;;;0.77;;
75854;SDS011;64502;59.976;30.316;2023-02-15T00:43:33;3.50;;;0.65;;
75854;SDS011;64502;59.976;30.316;2023-02-15T00:45:59;2.90;;;0.65;;
75854;SDS011;64502;59.976;30.316;2023-02-15T00:48:25;4.05;;;0.88;;
75854;SDS011;64502;59.976;30.316;2023-02-15T00:50:52;3.70;;;1.00;;
75854;SDS011;64502;59.976;30.316;2023-02-15T00:53:19;3.00;;;0.70;;
75854;SDS011;64502;59.976;30.316;2023-02-15T00:55:45;2.45;;;0.50;;
75854;SDS011;64502;59.976;30.316;2023-02-15T00:58:11;3.38;;;0.65;;
75854;SDS011;64502;59.976;30.316;2023-02-15T01:00:38;4.13;;;0.80;;
75854;SDS011;64502;59.976;30.316;2023-02-15T01:03:06;6.90;;;1.27;;
75854;SDS011;64502;59.976;30.316;2023-02-15T01:05:32;3.22;;;0.47;;
75854;SDS011;64502;59.976;30.316;2023-02-15T01:07:57;3.40;;;0.68;;
75854;SDS011;64502;59.976;30.316;2023-02-15T01:10:23;3.60;;;0.80;;
75854;SDS011;64502;59.976;30.316;2023-02-15T01:12:50;4.22;;;0.70;;
75854;SDS011;64502;59.976;30.316;2023-02-15T01:15:17;4.60;;;0.88;;
75854;SDS011;64502;59.976;30.316;2023-02-15T01:17:42;3.28;;;0.75;;
75854;SDS011;64502;59.976;30.316;2023-02-15T01:20:10;3.47;;;0.80;;
75854;SDS011;64502;59.976;30.316;2023-02-15T01:22:36;3.63;;;0.70;;
75854;SDS011;64502;59.976;30.316;2023-02-15T01:25:02;2.85;;;0.30;;
75854;SDS011;64502;59.976;30.316;2023-02-15T01:27:27;4.57;;;0.30;;
75854;SDS011;64502;59.976;30.316;2023-02-15T01:29:55;3.72;;;0.85;;
75854;SDS011;64502;59.976;30.316;2023-02-15T01:32:21;6.00;;;0.52;;
75854;SDS011;64502;59.976;30.316;2023-02-15T01:34:46;3.60;;;0.50;;
75854;SDS011;64502;59.976;30.316;2023-02-15T01:37:11;3.35;;;0.52;;
75854;SDS011;64502;59.976;30.316;2023-02-15T01:39:37;2.70;;;0.35;;
75854;SDS011;64502;59.976;30.316;2023-02-15T01:42:02;3.38;;;0.50;;
75854;SDS011;64502;59.976;30.316;2023-02-15T01:47:16;3.78;;;0.75;;
75854;SDS011;64502;59.976;30.316;2023-02-15T01:49:45;6.07;;;0.70;;
75854;SDS011;64502;59.976;30.316;2023-02-15T01:52:12;3.80;;;0.60;;
75854;SDS011;64502;59.976;30.316;2023-02-15T01:54:40;2.95;;;0.55;;
75854;SDS011;64502;59.976;30.316;2023-02-15T01:57:11;3.72;;;0.40;;
75854;SDS011;64502;59.976;30.316;2023-02-15T01:59:41;2.65;;;0.52;;
75854;SDS011;64502;59.976;30.316;2023-02-15T02:02:11;2.15;;;0.50;;
75854;SDS011;64502;59.976;30.316;2023-02-15T02:04:44;1.98;;;0.30;;
75854;SDS011;64502;59.976;30.316;2023-02-15T02:07:16;3.08;;;0.57;;
75854;SDS011;64502;59.976;30.316;2023-02-15T02:09:44;2.97;;;0.35;;
75854;SDS011;64502;59.976;30.316;2023-02-15T02:12:10;3.00;;;0.63;;
75854;SDS011;64502;59.976;30.316;2023-02-15T02:14:37;2.92;;;0.47;;
75854;SDS011;64502;59.976;30.316;2023-02-15T02:17:07;3.22;;;0.47;;
75854;SDS011;64502;59.976;30.316;2023-02-15T02:33:41;6.30;;;0.32;;
75854;SDS011;64502;59.976;30.316;2023-02-15T02:44:54;3.25;;;0.80;;
75854;SDS011;64502;59.976;30.316;2023-02-15T02:47:32;2.53;;;0.65;;
75854;SDS011;64502;59.976;30.316;2023-02-15T02:50:12;2.08;;;0.43;;
75854;SDS011;64502;59.976;30.316;2023-02-15T02:52:44;3.20;;;0.50;;
75854;SDS011;64502;59.976;30.316;2023-02-15T02:58:22;2.35;;;0.50;;
75854;SDS011;64502;59.976;30.316;2023-02-15T03:01:08;3.00;;;0.68;;
75854;SDS011;64502;59.976;30.316;2023-02-15T03:03:44;3.22;;;0.95;;
75854;SDS011;64502;59.976;30.316;2023-02-15T03:06:25;5.43;;;0.50;;
75854;SDS011;64502;59.976;30.316;2023-02-15T03:09:01;4.32;;;0.60;;
75854;SDS011;64502;59.976;30.316;2023-02-15T03:11:40;4.25;;;0.55;;
75854;SDS011;64502;59.976;30.316;2023-02-15T03:14:07;2.35;;;0.47;;
75854;SDS011;64502;59.976;30.316;2023-02-15T03:16:33;3.88;;;0.60;;
75854;SDS011;64502;59.976;30.316;2023-02-15T03:19:05;3.35;;;1.20;;
75854;SDS011;64502;59.976;30.316;2023-02-15T03:21:36;4.45;;;0.52;;
75854;SDS011;64502;59.976;30.316;2023-02-15T03:24:19;4.50;;;0.73;;
75854;SDS011;64502;59.976;30.316;2023-02-15T03:26:50;5.63;;;1.00;;
75854;SDS011;64502;59.976;30.316;2023-02-15T03:29:17;3.00;;;1.48;;
75854;SDS011;64502;59.976;30.316;2023-02-15T03:31:45;5.10;;;1.17;;
75854;SDS011;64502;59.976;30.316;2023-02-15T03:34:15;4.32;;;0.88;;
75854;SDS011;64502;59.976;30.316;2023-02-15T03:36:55;7.28;;;1.65;;
75854;SDS011;64502;59.976;30.316;2023-02-15T03:39:30;8.00;;;0.90;;
75854;SDS011;64502;59.976;30.316;2023-02-15T03:42:43;3.15;;;0.60;;
75854;SDS011;64502;59.976;30.316;2023-02-15T03:45:10;2.58;;;0.70;;
75854;SDS011;64502;59.976;30.316;2023-02-15T03:47:42;4.03;;;0.70;;
75854;SDS011;64502;59.976;30.316;2023-02-15T03:53:16;4.90;;;1.15;;
75854;SDS011;64502;59.976;30.316;2023-02-15T03:55:46;5.85;;;0.68;;
75854;SDS011;64502;59.976;30.316;2023-02-15T03:58:13;3.83;;;0.98;;
75854;SDS011;64502;59.976;30.316;2023-02-15T04:00:58;7.22;;;0.85;;
75854;SDS011;64502;59.976;30.316;2023-02-15T04:06:18;5.00;;;1.00;;
75854;SDS011;64502;59.976;30.316;2023-02-15T04:08:44;4.85;;;0.75;;
75854;SDS011;64502;59.976;30.316;2023-02-15T04:11:28;3.20;;;0.90;;
75854;SDS011;64502;59.976;30.316;2023-02-15T04:13:53;8.95;;;1.30;;
75854;SDS011;64502;59.976;30.316;2023-02-15T04:16:22;7.22;;;1.10;;
75854;SDS011;64502;59.976;30.316;2023-02-15T04:18:48;5.05;;;0.90;;
75854;SDS011;64502;59.976;30.316;2023-02-15T04:21:32;5.07;;;1.08;;
75854;SDS011;64502;59.976;30.316;2023-02-15T04:24:16;4.05;;;1.13;;
75854;SDS011;64502;59.976;30.316;2023-02-15T04:27:00;5.28;;;0.95;;
75854;SDS011;64502;59.976;30.316;2023-02-15T04:29:27;4.15;;;0.73;;
75854;SDS011;64502;59.976;30.316;2023-02-15T04:31:53;4.40;;;0.68;;
75854;SDS011;64502;59.976;30.316;2023-02-15T04:34:20;4.70;;;0.80;;
75854;SDS011;64502;59.976;30.316;2023-02-15T04:36:45;3.00;;;0.88;;
75854;SDS011;64502;59.976;30.316;2023-02-15T04:39:15;3.92;;;0.98;;
75854;SDS011;64502;59.976;30.316;2023-02-15T04:41:41;4.65;;;0.80;;
75854;SDS011;64502;59.976;30.316;2023-02-15T04:44:07;4.22;;;1.05;;
75854;SDS011;64502;59.976;30.316;2023-02-15T04:46:33;5.85;;;1.38;;
75854;SDS011;64502;59.976;30.316;2023-02-15T04:48:59;8.10;;;0.82;;
75854;SDS011;64502;59.976;30.316;2023-02-15T04:51:24;3.58;;;0.65;;
75854;SDS011;64502;59.976;30.316;2023-02-15T04:53:50;5.45;;;1.05;;
75854;SDS011;64502;59.976;30.316;2023-02-15T04:56:17;3.42;;;1.13;;
75854;SDS011;64502;59.976;30.316;2023-02-15T04:58:43;4.85;;;1.10;;
75854;SDS011;64502;59.976;30.316;2023-02-15T05:01:09;4.38;;;0.60;;
75854;SDS011;64502;59.976;30.316;2023-02-15T05:03:34;3.47;;;0.52;;
75854;SDS011;64502;59.976;30.316;2023-02-15T05:06:00;3.72;;;0.65;;
75854;SDS011;64502;59.976;30.316;2023-02-15T05:08:25;7.53;;;0.73;;
75854;SDS011;64502;59.976;30.316;2023-02-15T05:10:51;3.83;;;0.40;;
75854;SDS011;64502;59.976;30.316;2023-02-15T05:13:16;3.10;;;0.63;;
75854;SDS011;64502;59.976;30.316;2023-02-15T05:15:46;3.50;;;0.73;;
75854;SDS011;64502;59.976;30.316;2023-02-15T05:18:13;2.75;;;0.75;;
75854;SDS011;64502;59.976;30.316;2023-02-15T05:20:38;5.20;;;0.60;;
75854;SDS011;64502;59.976;30.316;2023-02-15T05:23:03;5.93;;;0.50;;
75854;SDS011;64502;59.976;30.316;2023-02-15T05:25:29;4.72;;;0.60;;
75854;SDS011;64502;59.976;30.316;2023-02-15T05:28:13;4.75;;;0.90;;
75854;SDS011;64502;59.976;30.316;2023-02-15T05:30:44;4.85;;;0.95;;
75854;SDS011;64502;59.976;30.316;2023-02-15T05:33:14;3.55;;;0.52;;
75854;SDS011;64502;59.976;30.316;2023-02-15T05:35:39;3.13;;;0.68;;
75854;SDS011;64502;59.976;30.316;2023-02-15T05:38:05;3.28;;;0.85;;
75854;SDS011;64502;59.976;30.316;2023-02-15T05:40:30;5.45;;;1.00;;
75854;SDS011;64502;59.976;30.316;2023-02-15T05:42:56;4.90;;;1.33;;
75854;SDS011;64502;59.976;30.316;2023-02-15T05:45:21;6.05;;;1.15;;
75854;SDS011;64502;59.976;30.316;2023-02-15T05:47:47;5.15;;;0.90;;
75854;SDS011;64502;59.976;30.316;2023-02-15T05:50:12;4.07;;;0.80;;
75854;SDS011;64502;59.976;30.316;2023-02-15T05:52:38;3.60;;;1.00;;
75854;SDS011;64502;59.976;30.316;2023-02-15T05:55:04;3.35;;;0.70;;
75854;SDS011;64502;59.976;30.316;2023-02-15T05:57:30;2.97;;;0.55;;
75854;SDS011;64502;59.976;30.316;2023-02-15T05:59:56;4.43;;;0.65;;
75854;SDS011;64502;59.976;30.316;2023-02-15T06:02:21;7.07;;;0.93;;
75854;SDS011;64502;59.976;30.316;2023-02-15T06:04:47;3.15;;;0.60;;
75854;SDS011;64502;59.976;30.316;2023-02-15T06:07:14;3.85;;;0.77;;
75854;SDS011;64502;59.976;30.316;2023-02-15T06:09:39;6.28;;;0.85;;
75854;SDS011;64502;59.976;30.316;2023-02-15T06:12:04;2.55;;;1.00;;
75854;SDS011;64502;59.976;30.316;2023-02-15T06:14:30;5.72;;;2.00;;
75854;SDS011;64502;59.976;30.316;2023-02-15T06:16:56;4.65;;;0.65;;
75854;SDS011;64502;59.976;30.316;2023-02-15T06:19:21;6.70;;;1.42;;
75854;SDS011;64502;59.976;30.316;2023-02-15T06:21:47;4.05;;;1.10;;
75854;SDS011;64502;59.976;30.316;2023-02-15T06:24:13;5.82;;;1.73;;
75854;SDS011;64502;59.976;30.316;2023-02-15T06:26:39;4.28;;;1.35;;
75854;SDS011;64502;59.976;30.316;2023-02-15T06:29:04;7.28;;;1.48;;
75854;SDS011;64502;59.976;30.316;2023-02-15T06:31:30;4.38;;;1.42;;
75854;SDS011;64502;59.976;30.316;2023-02-15T06:33:55;5.03;;;1.83;;
75854;SDS011;64502;59.976;30.316;2023-02-15T06:36:29;8.05;;;1.65;;
75854;SDS011;64502;59.976;30.316;2023-02-15T06:38:55;5.68;;;1.75;;
75854;SDS011;64502;59.976;30.316;2023-02-15T06:41:21;11.80;;;2.30;;
75854;SDS011;64502;59.976;30.316;2023-02-15T06:43:47;6.75;;;2.08;;
75854;SDS011;64502;59.976;30.316;2023-02-15T06:46:13;7.55;;;1.83;;
75854;SDS011;64502;59.976;30.316;2023-02-15T06:48:39;4.03;;;1.60;;
75854;SDS011;64502;59.976;30.316;2023-02-15T06:51:04;9.02;;;2.13;;
75854;SDS011;64502;59.976;30.316;2023-02-15T06:53:29;5.43;;;1.88;;
75854;SDS011;64502;59.976;30.316;2023-02-15T06:56:01;6.93;;;1.58;;
75854;SDS011;64502;59.976;30.316;2023-02-15T06:58:31;5.47;;;1.70;;
75854;SDS011;64502;59.976;30.316;2023-02-15T07:01:00;4.90;;;1.88;;
75854;SDS011;64502;59.976;30.316;2023-02-15T07:03:25;6.15;;;1.73;;
75854;SDS011;64502;59.976;30.316;2023-02-15T07:05:58;2.92;;;1.85;;
75854;SDS011;64502;59.976;30.316;2023-02-15T07:08:25;11.30;;;1.60;;
75854;SDS011;64502;59.976;30.316;2023-02-15T07:10:52;6.82;;;1.33;;
75854;SDS011;64502;59.976;30.316;2023-02-15T07:13:18;6.13;;;1.65;;
75854;SDS011;64502;59.976;30.316;2023-02-15T07:15:45;6.20;;;1.42;;
75854;SDS011;64502;59.976;30.316;2023-02-15T07:18:12;4.38;;;1.40;;
75854;SDS011;64502;59.976;30.316;2023-02-15T07:20:38;5.25;;;1.88;;
75854;SDS011;64502;59.976;30.316;2023-02-15T07:23:06;7.00;;;1.75;;
75854;SDS011;64502;59.976;30.316;2023-02-15T07:25:33;4.22;;;1.23;;
75854;SDS011;64502;59.976;30.316;2023-02-15T07:27:59;6.65;;;1.80;;
75854;SDS011;64502;59.976;30.316;2023-02-15T07:30:27;6.18;;;1.77;;
75854;SDS011;64502;59.976;30.316;2023-02-15T07:32:59;5.63;;;2.47;;
75854;SDS011;64502;59.976;30.316;2023-02-15T07:35:47;9.52;;;1.95;;
75854;SDS011;64502;59.976;30.316;2023-02-15T07:38:16;5.60;;;2.22;;
75854;SDS011;64502;59.976;30.316;2023-02-15T07:40:42;5.85;;;2.33;;
75854;SDS011;64502;59.976;30.316;2023-02-15T07:43:08;9.20;;;2.03;;
75854;SDS011;64502;59.976;30.316;2023-02-15T07:45:34;8.10;;;2.30;;
75854;SDS011;64502;59.976;30.316;2023-02-15T07:48:02;5.45;;;1.92;;
75854;SDS011;64502;59.976;30.316;2023-02-15T07:52:54;7.43;;;2.20;;
75854;SDS011;64502;59.976;30.316;2023-02-15T07:55:20;8.13;;;2.60;;
75854;SDS011;64502;59.976;30.316;2023-02-15T07:57:46;9.45;;;2.50;;
75854;SDS011;64502;59.976;30.316;2023-02-15T08:00:14;6.63;;;2.47;;
75854;SDS011;64502;59.976;30.316;2023-02-15T08:02:40;10.65;;;2.90;;
75854;SDS011;64502;59.976;30.316;2023-02-15T08:05:06;7.47;;;2.60;;
75854;SDS011;64502;59.976;30.316;2023-02-15T08:07:32;9.65;;;2.45;;
75854;SDS011;64502;59.976;30.316;2023-02-15T08:09:58;6.15;;;2.10;;
75854;SDS011;64502;59.976;30.316;2023-02-15T08:12:27;8.43;;;2.47;;
75854;SDS011;64502;59.976;30.316;2023-02-15T08:14:53;9.18;;;2.78;;
75854;SDS011;64502;59.976;30.316;2023-02-15T08:17:18;10.40;;;2.47;;
75854;SDS011;64502;59.976;30.316;2023-02-15T08:19:43;15.55;;;4.53;;
75854;SDS011;64502;59.976;30.316;2023-02-15T08:22:10;13.25;;;3.85;;
75854;SDS011;64502;59.976;30.316;2023-02-15T08:24:37;11.88;;;4.90;;
75854;SDS011;64502;59.976;30.316;2023-02-15T08:27:03;16.33;;;4.85;;
75854;SDS011;64502;59.976;30.316;2023-02-15T08:29:30;13.55;;;4.65;;
75854;SDS011;64502;59.976;30.316;2023-02-15T08:31:57;13.52;;;4.38;;
75854;SDS011;64502;59.976;30.316;2023-02-15T08:34:27;15.60;;;4.55;;
75854;SDS011;64502;59.976;30.316;2023-02-15T08:36:53;12.90;;;3.50;;
75854;SDS011;64502;59.976;30.316;2023-02-15T08:39:19;14.00;;;4.15;;
75854;SDS011;64502;59.976;30.316;2023-02-15T08:41:45;18.33;;;6.40;;
75854;SDS011;64502;59.976;30.316;2023-02-15T08:44:11;17.30;;;4.80;;
75854;SDS011;64502;59.976;30.316;2023-02-15T08:46:39;15.40;;;4.68;;
75854;SDS011;64502;59.976;30.316;2023-02-15T08:49:06;16.63;;;5.05;;
75854;SDS011;64502;59.976;30.316;2023-02-15T08:51:33;17.92;;;4.25;;
75854;SDS011;64502;59.976;30.316;2023-02-15T08:54:01;17.73;;;5.53;;
75854;SDS011;64502;59.976;30.316;2023-02-15T08:56:29;12.10;;;4.63;;
75854;SDS011;64502;59.976;30.316;2023-02-15T08:58:58;15.13;;;5.32;;
75854;SDS011;64502;59.976;30.316;2023-02-15T09:01:24;17.00;;;5.20;;
75854;SDS011;64502;59.976;30.316;2023-02-15T09:03:54;19.42;;;5.72;;
75854;SDS011;64502;59.976;30.316;2023-02-15T09:06:22;15.02;;;4.55;;
75854;SDS011;64502;59.976;30.316;2023-02-15T09:08:48;14.35;;;4.70;;
75854;SDS011;64502;59.976;30.316;2023-02-15T09:11:16;17.60;;;5.07;;
75854;SDS011;64502;59.976;30.316;2023-02-15T09:16:24;14.48;;;5.45;;
75854;SDS011;64502;59.976;30.316;2023-02-15T09:18:51;10.07;;;4.13;;
75854;SDS011;64502;59.976;30.316;2023-02-15T09:21:18;15.38;;;4.57;;
75854;SDS011;64502;59.976;30.316;2023-02-15T09:23:46;15.05;;;4.53;;
75854;SDS011;64502;59.976;30.316;2023-02-15T09:26:20;10.90;;;4.40;;
75854;SDS011;64502;59.976;30.316;2023-02-15T09:28:48;11.73;;;4.75;;
75854;SDS011;64502;59.976;30.316;2023-02-15T09:33:44;17.80;;;5.13;;
75854;SDS011;64502;59.976;30.316;2023-02-15T09:36:18;16.63;;;4.65;;
75854;SDS011;64502;59.976;30.316;2023-02-15T09:38:46;8.45;;;4.03;;
75854;SDS011;64502;59.976;30.316;2023-02-15T09:41:17;13.85;;;3.85;;
75854;SDS011;64502;59.976;30.316;2023-02-15T09:52:18;18.02;;;5.53;;
75854;SDS011;64502;59.976;30.316;2023-02-15T09:55:09;12.85;;;6.05;;
75854;SDS011;64502;59.976;30.316;2023-02-15T10:17:16;11.35;;;4.97;;
75854;SDS011;64502;59.976;30.316;2023-02-15T10:22:20;16.77;;;5.97;;
75854;SDS011;64502;59.976;30.316;2023-02-15T10:27:19;16.95;;;6.25;;
75854;SDS011;64502;59.976;30.316;2023-02-15T10:29:52;14.25;;;6.15;;
75854;SDS011;64502;59.976;30.316;2023-02-15T10:32:36;16.02;;;6.53;;
75854;SDS011;64502;59.976;30.316;2023-02-15T10:35:16;21.38;;;6.78;;
75854;SDS011;64502;59.976;30.316;2023-02-15T10:50:34;18.00;;;5.90;;
75854;SDS011;64502;59.976;30.316;2023-02-15T10:55:25;13.57;;;5.32;;
75854;SDS011;64502;59.976;30.316;2023-02-15T10:58:11;16.92;;;6.82;;
75854;SDS011;64502;59.976;30.316;2023-02-15T11:00:54;19.60;;;5.60;;
75854;SDS011;64502;59.976;30.316;2023-02-15T11:06:07;16.13;;;6.25;;
75854;SDS011;64502;59.976;30.316;2023-02-15T11:08:41;17.20;;;5.90;;
75854;SDS011;64502;59.976;30.316;2023-02-15T11:11:21;24.92;;;7.95;;
75854;SDS011;64502;59.976;30.316;2023-02-15T11:13:56;20.98;;;6.40;;
75854;SDS011;64502;59.976;30.316;2023-02-15T11:16:29;17.08;;;5.97;;
75854;SDS011;64502;59.976;30.316;2023-02-15T11:18:58;18.25;;;5.93;;
75854;SDS011;64502;59.976;30.316;2023-02-15T11:21:31;19.33;;;6.43;;
75854;SDS011;64502;59.976;30.316;2023-02-15T11:24:07;18.45;;;6.07;;
75854;SDS011;64502;59.976;30.316;2023-02-15T11:29:33;21.17;;;6.13;;
75854;SDS011;64502;59.976;30.316;2023-02-15T11:32:14;20.27;;;6.78;;
75854;SDS011;64502;59.976;30.316;2023-02-15T11:35:20;21.48;;;8.40;;
75854;SDS011;64502;59.976;30.316;2023-02-15T11:38:24;20.77;;;5.95;;
75854;SDS011;64502;59.976;30.316;2023-02-15T11:40:59;23.42;;;7.15;;
75854;SDS011;64502;59.976;30.316;2023-02-15T11:43:39;20.52;;;6.47;;
75854;SDS011;64502;59.976;30.316;2023-02-15T11:46:11;23.67;;;7.50;;
75854;SDS011;64502;59.976;30.316;2023-02-15T11:48:37;22.90;;;6.70;;
75854;SDS011;64502;59.976;30.316;2023-02-15T11:51:04;19.52;;;5.40;;
75854;SDS011;64502;59.976;30.316;2023-02-15T11:53:32;22.20;;;7.13;;
75854;SDS011;64502;59.976;30.316;2023-02-15T11:55:58;22.50;;;7.50;;
75854;SDS011;64502;59.976;30.316;2023-02-15T11:58:33;24.10;;;6.85;;
75854;SDS011;64502;59.976;30.316;2023-02-15T12:03:50;18.45;;;6.72;;
75854;SDS011;64502;59.976;30.316;2023-02-15T12:06:24;18.63;;;5.53;;
75854;SDS011;64502;59.976;30.316;2023-02-15T12:09:05;20.15;;;6.30;;
75854;SDS011;64502;59.976;30.316;2023-02-15T12:11:41;12.07;;;5.78;;
75854;SDS011;64502;59.976;30.316;2023-02-15T12:14:10;23.65;;;6.03;;
75854;SDS011;64502;59.976;30.316;2023-02-15T12:16:50;19.48;;;5.70;;
75854;SDS011;64502;59.976;30.316;2023-02-15T12:19:28;16.08;;;5.47;;
75854;SDS011;64502;59.976;30.316;2023-02-15T12:24:36;21.50;;;6.60;;
75854;SDS011;64502;59.976;30.316;2023-02-15T12:27:16;18.45;;;6.28;;
75854;SDS011;64502;59.976;30.316;2023-02-15T12:29:48;24.73;;;6.38;;
75854;SDS011;64502;59.976;30.316;2023-02-15T12:32:25;18.50;;;6.10;;
75854;SDS011;64502;59.976;30.316;2023-02-15T12:35:16;27.67;;;6.65;;
75854;SDS011;64502;59.976;30.316;2023-02-15T12:37:51;15.73;;;5.60;;
75854;SDS011;64502;59.976;30.316;2023-02-15T12:40:23;23.48;;;7.40;;
75854;SDS011;64502;59.976;30.316;2023-02-15T12:42:51;24.30;;;6.22;;
75854;SDS011;64502;59.976;30.316;2023-02-15T12:45:32;19.70;;;7.13;;
75854;SDS011;64502;59.976;30.316;2023-02-15T12:48:09;18.20;;;5.97;;
75854;SDS011;64502;59.976;30.316;2023-02-15T12:50:37;22.98;;;7.97;;
75854;SDS011;64502;59.976;30.316;2023-02-15T12:55:38;17.75;;;5.57;;
75854;SDS011;64502;59.976;30.316;2023-02-15T12:58:24;19.98;;;6.72;;
75854;SDS011;64502;59.976;30.316;2023-02-15T13:03:37;18.35;;;5.97;;
75854;SDS011;64502;59.976;30.316;2023-02-15T13:06:20;19.77;;;6.25;;
75854;SDS011;64502;59.976;30.316;2023-02-15T13:08:46;21.15;;;7.45;;
75854;SDS011;64502;59.976;30.316;2023-02-15T13:11:15;21.60;;;6.90;;
75854;SDS011;64502;59.976;30.316;2023-02-15T13:13:54;15.55;;;5.38;;
75854;SDS011;64502;59.976;30.316;2023-02-15T13:16:21;14.68;;;5.40;;
75854;SDS011;64502;59.976;30.316;2023-02-15T13:19:04;20.40;;;6.05;;
75854;SDS011;64502;59.976;30.316;2023-02-15T13:21:49;17.35;;;6.03;;
75854;SDS011;64502;59.976;30.316;2023-02-15T13:24:25;18.85;;;6.97;;
75854;SDS011;64502;59.976;30.316;2023-02-15T13:27:04;18.77;;;7.28;;
75854;SDS011;64502;59.976;30.316;2023-02-15T13:29:31;20.13;;;5.72;;
75854;SDS011;64502;59.976;30.316;2023-02-15T13:34:34;14.88;;;5.68;;
75854;SDS011;64502;59.976;30.316;2023-02-15T13:37:15;16.80;;;5.97;;
75854;SDS011;64502;59.976;30.316;2023-02-15T13:42:19;18.15;;;7.35;;
75854;SDS011;64502;59.976;30.316;2023-02-15T13:47:38;12.77;;;5.82;;
75854;SDS011;64502;59.976;30.316;2023-02-15T13:53:07;16.50;;;5.30;;
75854;SDS011;64502;59.976;30.316;2023-02-15T14:18:03;15.25;;;5.40;;
75854;SDS011;64502;59.976;30.316;2023-02-15T14:31:26;14.03;;;5.93;;
75854;SDS011;64502;59.976;30.316;2023-02-15T14:33:58;14.73;;;4.90;;
75854;SDS011;64502;59.976;30.316;2023-02-15T14:36:24;18.40;;;4.88;;
75854;SDS011;64502;59.976;30.316;2023-02-15T14:41:59;13.40;;;5.32;;
75854;SDS011;64502;59.976;30.316;2023-02-15T14:44:57;19.85;;;6.65;;
75854;SDS011;64502;59.976;30.316;2023-02-15T14:47:40;17.90;;;5.43;;
75854;SDS011;64502;59.976;30.316;2023-02-15T14:55:40;12.85;;;4.88;;
75854;SDS011;64502;59.976;30.316;2023-02-15T14:58:09;12.45;;;4.97;;
75854;SDS011;64502;59.976;30.316;2023-02-15T15:00:40;17.50;;;5.38;;
75854;SDS011;64502;59.976;30.316;2023-02-15T15:03:11;17.05;;;5.32;;
75854;SDS011;64502;59.976;30.316;2023-02-15T15:05:49;15.38;;;5.50;;
75854;SDS011;64502;59.976;30.316;2023-02-15T15:08:37;14.25;;;4.70;;
75854;SDS011;64502;59.976;30.316;2023-02-15T15:13:59;14.48;;;4.05;;
75854;SDS011;64502;59.976;30.316;2023-02-15T15:19:56;18.48;;;4.57;;
75854;SDS011;64502;59.976;30.316;2023-02-15T15:22:17;15.75;;;6.22;;
75854;SDS011;64502;59.976;30.316;2023-02-15T15:38:50;11.20;;;3.95;;
75854;SDS011;64502;59.976;30.316;2023-02-15T15:49:24;12.48;;;4.60;;
75854;SDS011;64502;59.976;30.316;2023-02-15T15:51:56;13.02;;;4.63;;
75854;SDS011;64502;59.976;30.316;2023-02-15T15:54:26;11.90;;;4.65;;
75854;SDS011;64502;59.976;30.316;2023-02-15T15:56:56;11.05;;;4.10;;
75854;SDS011;64502;59.976;30.316;2023-02-15T15:59:28;12.88;;;4.38;;
75854;SDS011;64502;59.976;30.316;2023-02-15T16:01:56;12.55;;;4.10;;
75854;SDS011;64502;59.976;30.316;2023-02-15T16:04:29;12.98;;;4.13;;
75854;SDS011;64502;59.976;30.316;2023-02-15T16:06:58;14.45;;;4.28;;
75854;SDS011;64502;59.976;30.316;2023-02-15T16:09:54;10.57;;;4.05;;
75854;SDS011;64502;59.976;30.316;2023-02-15T16:12:33;13.55;;;3.92;;
75854;SDS011;64502;59.976;30.316;2023-02-15T16:15:01;13.65;;;4.15;;
75854;SDS011;64502;59.976;30.316;2023-02-15T16:17:49;14.52;;;4.65;;
75854;SDS011;64502;59.976;30.316;2023-02-15T16:20:21;10.30;;;4.47;;
75854;SDS011;64502;59.976;30.316;2023-02-15T16:28:14;12.13;;;4.75;;
75854;SDS011;64502;59.976;30.316;2023-02-15T16:30:43;17.55;;;5.43;;
75854;SDS011;64502;59.976;30.316;2023-02-15T16:33:10;11.93;;;3.90;;
75854;SDS011;64502;59.976;30.316;2023-02-15T16:35:37;13.60;;;4.82;;
75854;SDS011;64502;59.976;30.316;2023-02-15T16:38:04;16.15;;;5.07;;
75854;SDS011;64502;59.976;30.316;2023-02-15T16:43:16;16.55;;;5.13;;
75854;SDS011;64502;59.976;30.316;2023-02-15T16:45:46;16.55;;;4.93;;
75854;SDS011;64502;59.976;30.316;2023-02-15T16:48:17;12.98;;;5.07;;
75854;SDS011;64502;59.976;30.316;2023-02-15T16:50:51;12.48;;;5.22;;
75854;SDS011;64502;59.976;30.316;2023-02-15T16:53:21;14.63;;;4.63;;
75854;SDS011;64502;59.976;30.316;2023-02-15T16:55:50;16.02;;;5.70;;
75854;SDS011;64502;59.976;30.316;2023-02-15T16:58:20;16.55;;;6.15;;
75854;SDS011;64502;59.976;30.316;2023-02-15T17:00:50;11.55;;;4.95;;
75854;SDS011;64502;59.976;30.316;2023-02-15T17:05:44;14.50;;;5.53;;
75854;SDS011;64502;59.976;30.316;2023-02-15T17:13:23;14.10;;;4.50;;
75854;SDS011;64502;59.976;30.316;2023-02-15T17:18:24;17.75;;;5.03;;
75854;SDS011;64502;59.976;30.316;2023-02-15T17:21:08;19.88;;;5.75;;
75854;SDS011;64502;59.976;30.316;2023-02-15T17:26:14;17.23;;;5.53;;
75854;SDS011;64502;59.976;30.316;2023-02-15T17:28:45;13.93;;;5.25;;
75854;SDS011;64502;59.976;30.316;2023-02-15T17:31:13;10.25;;;4.15;;
75854;SDS011;64502;59.976;30.316;2023-02-15T17:33:41;20.00;;;7.07;;
75854;SDS011;64502;59.976;30.316;2023-02-15T17:43:49;16.80;;;5.00;;
75854;SDS011;64502;59.976;30.316;2023-02-15T17:46:15;18.05;;;6.13;;
75854;SDS011;64502;59.976;30.316;2023-02-15T17:48:46;18.17;;;6.60;;
75854;SDS011;64502;59.976;30.316;2023-02-15T17:51:13;19.50;;;6.47;;
75854;SDS011;64502;59.976;30.316;2023-02-15T17:53:40;19.08;;;6.00;;
75854;SDS011;64502;59.976;30.316;2023-02-15T17:56:26;14.90;;;5.10;;
75854;SDS011;64502;59.976;30.316;2023-02-15T17:58:51;17.77;;;7.05;;
75854;SDS011;64502;59.976;30.316;2023-02-15T18:01:17;18.55;;;7.20;;
75854;SDS011;64502;59.976;30.316;2023-02-15T18:04:04;18.98;;;6.13;;
75854;SDS011;64502;59.976;30.316;2023-02-15T18:06:54;14.18;;;6.28;;
75854;SDS011;64502;59.976;30.316;2023-02-15T18:09:39;19.42;;;6.75;;
75854;SDS011;64502;59.976;30.316;2023-02-15T18:12:24;21.80;;;7.43;;
75854;SDS011;64502;59.976;30.316;2023-02-15T18:14:54;18.10;;;7.70;;
75854;SDS011;64502;59.976;30.316;2023-02-15T18:17:26;23.40;;;6.85;;
75854;SDS011;64502;59.976;30.316;2023-02-15T18:19:54;16.55;;;6.70;;
75854;SDS011;64502;59.976;30.316;2023-02-15T18:22:19;23.38;;;7.32;;
75854;SDS011;64502;59.976;30.316;2023-02-15T18:24:46;16.90;;;5.78;;